Hurlburt Field, Florida
Current Conditions -  °F | °C
As of 11:58 AM on Tuesday 21 Oct 2014 (Local Time) from KHRT Reporting Station
Clear Clear  
Wind Chill: 77°   Ceiling: Unl
Heat Index: 78°   Visibility: 10mi
Dew Point: 47°   Wind: 7mph
Humidity: 34%   Direction: 20°NNE
Pressure: 30.01"   Gusts: NA
Location:  30.43°N, 86.69°W
Report Text: KHRT 211658Z AUTO 02006KT 10SM CLR 25/08 A3001 RMK AO2 DZB1636E1646 SLP164 P0000 T02520082 RVRNO $
Loading
Personal Weather Stations






























Interactive Weather Map New forecast layout! Learn more

10-Day Weather Forecast

Advertisements
Track Severe Weather on mobile